Christopher Myskowski — WDG8768 — position and weather

sailwx.info

Track history (hours):
 
Tides and Currents Weather Stations Pressure Air Temp Water Temp Dewpoint Dewpoint Depression Visibility Wind Speed Wind Dir Waves Ship Positions

Christopher Myskowski

Owner: Marquette Transportation Co. LLC, Paducah, KY. More information available from US FCC via Universal Licensing System and Coast Guard Vessel Documentation Center.

Last reported at 2018-Jan-22 21:43 UTC. Time now 2018-Jan-24 11:58 UTC.
Position N 38°37' W 090°11'.

Length 45 m; draft 2.7 m.

Type: Towing. MMSI: 367580880.

Date/timePositionNaut miles runAvg speedWind from/ knotsBaromVisibWave heightAir tempDewpointWater temp
2018-Jan-22 21:43N 38°37' W 090°11'2 8.5
2018-Jan-22 21:27N 38°40' W 090°11'2 5.2
2018-Jan-22 21:00N 38°42' W 090°11'0 0.3
2018-Jan-22 19:47N 38°42' W 090°11'1 1.5
2018-Jan-22 19:22N 38°43' W 090°10'1 2.3
2018-Jan-22 19:00N 38°43' W 090°10'0 0.1
2018-Jan-22 18:28N 38°43' W 090°10'0 0.1
2018-Jan-22 18:00N 38°43' W 090°10'0 0.0
2018-Jan-22 17:26N 38°43' W 090°10'0 0.0
2018-Jan-22 17:00N 38°43' W 090°10'0 0.8
2018-Jan-22 16:30N 38°44' W 090°10'2 3.8
2018-Jan-22 16:00N 38°45' W 090°09'2 4.0
2018-Jan-22 15:27N 38°47' W 090°07'3 6.8
2018-Jan-22 15:00N 38°50' W 090°06'3 5.5
2018-Jan-22 14:30N 38°52' W 090°09'0 0.2
2018-Jan-22 13:54N 38°52' W 090°09'0 0.3
2018-Jan-22 13:30N 38°52' W 090°09'0 0.0
2018-Jan-22 13:00N 38°52' W 090°09'0 0.0
2018-Jan-22 12:30N 38°52' W 090°09'0 0.0
2018-Jan-22 12:00N 38°52' W 090°09'0 0.6
2018-Jan-22 11:30N 38°52' W 090°10'1 2.5
2018-Jan-22 10:58N 38°53' W 090°11'2 3.3
2018-Jan-22 10:30N 38°52' W 090°09'1 1.2
2018-Jan-22 10:00N 38°52' W 090°09'0 0.4
2018-Jan-22 09:30N 38°52' W 090°09'0 0.2
2018-Jan-22 09:00N 38°52' W 090°09'0 0.3
2018-Jan-22 08:30N 38°52' W 090°09'0 0.0
2018-Jan-22 08:00N 38°52' W 090°09'0 0.0
2018-Jan-22 07:30N 38°52' W 090°09'0 0.1
2018-Jan-22 05:07N 38°52' W 090°09'0 0.0
2018-Jan-22 04:20N 38°52' W 090°09'0 0.1
2018-Jan-22 04:00N 38°52' W 090°09'0 0.4
2018-Jan-22 03:30N 38°52' W 090°09'0 0.0
2018-Jan-22 03:00N 38°52' W 090°09'0 0.5
2018-Jan-22 02:30N 38°52' W 090°09'0 0.0
2018-Jan-22 02:00N 38°52' W 090°09'0 0.2
2018-Jan-22 00:45N 38°52' W 090°09'0 0.0
2018-Jan-22 00:30N 38°52' W 090°09'0 0.0
2018-Jan-21 23:55N 38°52' W 090°09'2 3.5
2018-Jan-21 23:29N 38°53' W 090°11'1 1.5
2018-Jan-21 23:00N 38°53' W 090°12'1 2.4
2018-Jan-21 22:29N 38°54' W 090°13'0 0.0
2018-Jan-21 22:00N 38°54' W 090°13'0 0.0
2018-Jan-21 21:30N 38°54' W 090°13'0 0.0
2018-Jan-21 21:00N 38°54' W 090°13'0 0.0
2018-Jan-21 20:30N 38°54' W 090°13'0 0.0
2018-Jan-21 20:00N 38°54' W 090°13'0 0.0
2018-Jan-21 19:30N 38°54' W 090°13'0 0.0
2018-Jan-21 19:00N 38°54' W 090°13'0 0.0
2018-Jan-21 18:30N 38°54' W 090°13'0 0.0
2018-Jan-21 17:59N 38°54' W 090°13'0 0.0
2018-Jan-21 17:30N 38°54' W 090°13'0 0.0
2018-Jan-21 16:59N 38°54' W 090°13'0 0.0
2018-Jan-21 16:30N 38°54' W 090°13'0 0.0
2018-Jan-21 16:00N 38°54' W 090°13'0 0.0
2018-Jan-21 15:30N 38°54' W 090°13'0 0.0
2018-Jan-21 15:00N 38°54' W 090°13'0 0.0
2018-Jan-21 14:30N 38°54' W 090°13'1 2.2
2018-Jan-21 14:00N 38°55' W 090°14'2 3.7
2018-Jan-21 13:30N 38°55' W 090°16'4 7.8
2018-Jan-21 13:00N 38°57' W 090°21'3 6.9
2018-Jan-21 12:30N 38°58' W 090°25'3 6.9
2018-Jan-21 12:00N 38°58' W 090°30'2 5.0
2018-Jan-21 11:30N 38°58' W 090°33'3 6.0
2018-Jan-21 11:00N 39°01' W 090°35'3 5.3
2018-Jan-21 10:30N 39°04' W 090°35'2 4.9
2018-Jan-21 10:00N 39°06' W 090°36'3 5.4
2018-Jan-21 09:30N 39°09' W 090°37'  
Track history (hours):
 
Tides and Currents Weather Stations Pressure Air Temp Water Temp Dewpoint Dewpoint Depression Visibility Wind Speed Wind Dir Waves Ship Positions

Christopher Myskowski

Owner: Marquette Transportation Co. LLC, Paducah, KY. More information available from US FCC via Universal Licensing System and Coast Guard Vessel Documentation Center.

Last reported at 2018-Jan-22 21:43 UTC. Time now 2018-Jan-24 11:58 UTC.
Position N 38°37' W 090°11'.

Length 45 m; draft 2.7 m.

Type: Towing. MMSI: 367580880.

Date/timePositionNaut miles runAvg speedWind from/ knotsBaromVisibWave heightAir tempDewpointWater temp
2018-Jan-22 21:43N 38°37' W 090°11'2 8.5
2018-Jan-22 21:27N 38°40' W 090°11'2 5.2
2018-Jan-22 21:00N 38°42' W 090°11'0 0.3
2018-Jan-22 19:47N 38°42' W 090°11'1 1.5
2018-Jan-22 19:22N 38°43' W 090°10'1 2.3
2018-Jan-22 19:00N 38°43' W 090°10'0 0.1
2018-Jan-22 18:28N 38°43' W 090°10'0 0.1
2018-Jan-22 18:00N 38°43' W 090°10'0 0.0
2018-Jan-22 17:26N 38°43' W 090°10'0 0.0
2018-Jan-22 17:00N 38°43' W 090°10'0 0.8
2018-Jan-22 16:30N 38°44' W 090°10'2 3.8
2018-Jan-22 16:00N 38°45' W 090°09'2 4.0
2018-Jan-22 15:27N 38°47' W 090°07'3 6.8
2018-Jan-22 15:00N 38°50' W 090°06'3 5.5
2018-Jan-22 14:30N 38°52' W 090°09'0 0.2
2018-Jan-22 13:54N 38°52' W 090°09'0 0.3
2018-Jan-22 13:30N 38°52' W 090°09'0 0.0
2018-Jan-22 13:00N 38°52' W 090°09'0 0.0
2018-Jan-22 12:30N 38°52' W 090°09'0 0.0
2018-Jan-22 12:00N 38°52' W 090°09'0 0.6
2018-Jan-22 11:30N 38°52' W 090°10'1 2.5
2018-Jan-22 10:58N 38°53' W 090°11'2 3.3
2018-Jan-22 10:30N 38°52' W 090°09'1 1.2
2018-Jan-22 10:00N 38°52' W 090°09'0 0.4
2018-Jan-22 09:30N 38°52' W 090°09'0 0.2
2018-Jan-22 09:00N 38°52' W 090°09'0 0.3
2018-Jan-22 08:30N 38°52' W 090°09'0 0.0
2018-Jan-22 08:00N 38°52' W 090°09'0 0.0
2018-Jan-22 07:30N 38°52' W 090°09'0 0.1
2018-Jan-22 05:07N 38°52' W 090°09'0 0.0
2018-Jan-22 04:20N 38°52' W 090°09'0 0.1
2018-Jan-22 04:00N 38°52' W 090°09'0 0.4
2018-Jan-22 03:30N 38°52' W 090°09'0 0.0
2018-Jan-22 03:00N 38°52' W 090°09'0 0.5
2018-Jan-22 02:30N 38°52' W 090°09'0 0.0
2018-Jan-22 02:00N 38°52' W 090°09'0 0.2
2018-Jan-22 00:45N 38°52' W 090°09'0 0.0
2018-Jan-22 00:30N 38°52' W 090°09'0 0.0
2018-Jan-21 23:55N 38°52' W 090°09'2 3.5
2018-Jan-21 23:29N 38°53' W 090°11'1 1.5
2018-Jan-21 23:00N 38°53' W 090°12'1 2.4
2018-Jan-21 22:29N 38°54' W 090°13'0 0.0
2018-Jan-21 22:00N 38°54' W 090°13'0 0.0
2018-Jan-21 21:30N 38°54' W 090°13'0 0.0
2018-Jan-21 21:00N 38°54' W 090°13'0 0.0
2018-Jan-21 20:30N 38°54' W 090°13'0 0.0
2018-Jan-21 20:00N 38°54' W 090°13'0 0.0
2018-Jan-21 19:30N 38°54' W 090°13'0 0.0
2018-Jan-21 19:00N 38°54' W 090°13'0 0.0
2018-Jan-21 18:30N 38°54' W 090°13'0 0.0
2018-Jan-21 17:59N 38°54' W 090°13'0 0.0
2018-Jan-21 17:30N 38°54' W 090°13'0 0.0
2018-Jan-21 16:59N 38°54' W 090°13'0 0.0
2018-Jan-21 16:30N 38°54' W 090°13'0 0.0
2018-Jan-21 16:00N 38°54' W 090°13'0 0.0
2018-Jan-21 15:30N 38°54' W 090°13'0 0.0
2018-Jan-21 15:00N 38°54' W 090°13'0 0.0
2018-Jan-21 14:30N 38°54' W 090°13'1 2.2
2018-Jan-21 14:00N 38°55' W 090°14'2 3.7
2018-Jan-21 13:30N 38°55' W 090°16'4 7.8
2018-Jan-21 13:00N 38°57' W 090°21'3 6.9
2018-Jan-21 12:30N 38°58' W 090°25'3 6.9
2018-Jan-21 12:00N 38°58' W 090°30'2 5.0
2018-Jan-21 11:30N 38°58' W 090°33'3 6.0
2018-Jan-21 11:00N 39°01' W 090°35'3 5.3
2018-Jan-21 10:30N 39°04' W 090°35'2 4.9
2018-Jan-21 10:00N 39°06' W 090°36'3 5.4
2018-Jan-21 09:30N 39°09' W 090°37'  

Dump ship's entire track history